sensor_id;sensor_type;location;lat;lon;timestamp;pressure;altitude;pressure_sealevel;temperature;humidity
33161;BME280;19522;45.656;11.302;2023-06-14T00:01:06;97810.53;;;17.42;92.23
33161;BME280;19522;45.656;11.302;2023-06-14T00:03:31;97838.63;;;17.50;93.48
33161;BME280;19522;45.656;11.302;2023-06-14T00:05:57;97795.13;;;17.24;93.46
33161;BME280;19522;45.656;11.302;2023-06-14T00:08:22;97853.22;;;17.50;93.53
33161;BME280;19522;45.656;11.302;2023-06-14T00:10:52;97843.53;;;17.48;93.90
33161;BME280;19522;45.656;11.302;2023-06-14T00:13:18;97771.88;;;16.98;94.41
33161;BME280;19522;45.656;11.302;2023-06-14T00:15:45;97814.16;;;17.31;93.76
33161;BME280;19522;45.656;11.302;2023-06-14T00:18:11;97822.75;;;17.52;92.58
33161;BME280;19522;45.656;11.302;2023-06-14T00:20:37;97850.28;;;17.57;93.57
33161;BME280;19522;45.656;11.302;2023-06-14T00:23:03;97832.06;;;17.51;93.69
33161;BME280;19522;45.656;11.302;2023-06-14T00:25:28;97849.88;;;17.48;95.01
33161;BME280;19522;45.656;11.302;2023-06-14T00:27:54;97795.78;;;17.15;94.82
33161;BME280;19522;45.656;11.302;2023-06-14T00:30:20;97850.38;;;17.62;93.97
33161;BME280;19522;45.656;11.302;2023-06-14T00:32:46;97849.19;;;17.58;94.04
33161;BME280;19522;45.656;11.302;2023-06-14T00:35:12;97758.69;;;16.95;95.18
33161;BME280;19522;45.656;11.302;2023-06-14T00:37:38;97814.84;;;17.38;94.70
33161;BME280;19522;45.656;11.302;2023-06-14T00:40:07;97823.84;;;17.51;94.50
33161;BME280;19522;45.656;11.302;2023-06-14T00:42:33;97777.84;;;17.24;93.89
33161;BME280;19522;45.656;11.302;2023-06-14T00:45:00;97827.09;;;17.65;92.08
33161;BME280;19522;45.656;11.302;2023-06-14T00:47:26;97822.78;;;17.69;91.86
33161;BME280;19522;45.656;11.302;2023-06-14T00:49:53;97805.94;;;17.65;91.87
33161;BME280;19522;45.656;11.302;2023-06-14T00:52:19;97828.06;;;17.75;92.13
33161;BME280;19522;45.656;11.302;2023-06-14T00:54:45;97828.91;;;17.59;92.84
33161;BME280;19522;45.656;11.302;2023-06-14T00:57:12;97828.75;;;17.49;92.70
33161;BME280;19522;45.656;11.302;2023-06-14T00:59:42;97831.22;;;17.33;93.69
33161;BME280;19522;45.656;11.302;2023-06-14T01:02:08;97823.41;;;17.42;93.80
33161;BME280;19522;45.656;11.302;2023-06-14T01:04:33;97786.88;;;17.24;92.69
33161;BME280;19522;45.656;11.302;2023-06-14T01:07:07;97803.78;;;17.33;92.42
33161;BME280;19522;45.656;11.302;2023-06-14T01:12:47;97800.28;;;17.21;94.16
33161;BME280;19522;45.656;11.302;2023-06-14T01:15:17;97832.38;;;17.37;94.72
33161;BME280;19522;45.656;11.302;2023-06-14T01:17:42;97807.50;;;17.27;94.46
33161;BME280;19522;45.656;11.302;2023-06-14T01:20:11;97813.47;;;17.07;96.21
33161;BME280;19522;45.656;11.302;2023-06-14T01:22:53;97825.75;;;17.33;95.18
33161;BME280;19522;45.656;11.302;2023-06-14T01:25:22;97820.69;;;17.13;97.23
33161;BME280;19522;45.656;11.302;2023-06-14T01:27:50;97820.50;;;17.03;98.09
33161;BME280;19522;45.656;11.302;2023-06-14T01:30:17;97815.31;;;17.18;97.35
33161;BME280;19522;45.656;11.302;2023-06-14T01:32:44;97794.66;;;16.98;97.32
33161;BME280;19522;45.656;11.302;2023-06-14T01:35:13;97807.34;;;16.88;98.17
33161;BME280;19522;45.656;11.302;2023-06-14T01:37:40;97770.84;;;16.58;100.00
33161;BME280;19522;45.656;11.302;2023-06-14T01:40:08;97812.44;;;16.84;99.77
33161;BME280;19522;45.656;11.302;2023-06-14T01:42:36;97803.94;;;16.69;100.00
33161;BME280;19522;45.656;11.302;2023-06-14T01:45:05;97818.19;;;16.82;100.00
33161;BME280;19522;45.656;11.302;2023-06-14T01:47:31;97793.13;;;16.62;100.00
33161;BME280;19522;45.656;11.302;2023-06-14T01:49:57;97773.56;;;16.29;100.00
33161;BME280;19522;45.656;11.302;2023-06-14T01:52:23;97752.72;;;16.28;100.00
33161;BME280;19522;45.656;11.302;2023-06-14T01:54:50;97815.25;;;16.72;100.00
33161;BME280;19522;45.656;11.302;2023-06-14T01:57:16;97807.03;;;16.72;100.00
33161;BME280;19522;45.656;11.302;2023-06-14T01:59:44;97803.28;;;16.78;100.00
33161;BME280;19522;45.656;11.302;2023-06-14T02:02:14;97801.41;;;16.79;100.00
33161;BME280;19522;45.656;11.302;2023-06-14T02:04:39;97773.63;;;16.46;100.00
33161;BME280;19522;45.656;11.302;2023-06-14T02:07:05;97787.63;;;16.62;100.00
33161;BME280;19522;45.656;11.302;2023-06-14T02:09:31;97732.72;;;16.28;100.00
33161;BME280;19522;45.656;11.302;2023-06-14T02:11:56;97805.94;;;16.73;100.00
33161;BME280;19522;45.656;11.302;2023-06-14T02:14:22;97808.06;;;16.83;100.00
33161;BME280;19522;45.656;11.302;2023-06-14T02:16:48;97777.53;;;16.79;100.00
33161;BME280;19522;45.656;11.302;2023-06-14T02:19:15;97780.88;;;16.81;99.82
33161;BME280;19522;45.656;11.302;2023-06-14T02:21:41;97797.16;;;17.00;99.15
33161;BME280;19522;45.656;11.302;2023-06-14T02:24:07;97783.81;;;16.92;98.86
33161;BME280;19522;45.656;11.302;2023-06-14T02:26:33;97796.53;;;17.10;97.83
33161;BME280;19522;45.656;11.302;2023-06-14T02:28:59;97793.38;;;17.18;97.18
33161;BME280;19522;45.656;11.302;2023-06-14T02:31:25;97769.84;;;17.05;97.36
33161;BME280;19522;45.656;11.302;2023-06-14T02:33:51;97791.78;;;17.22;97.55
33161;BME280;19522;45.656;11.302;2023-06-14T02:36:16;97769.84;;;17.05;97.88
33161;BME280;19522;45.656;11.302;2023-06-14T02:38:42;97793.03;;;17.32;96.46
33161;BME280;19522;45.656;11.302;2023-06-14T02:41:07;97746.09;;;16.82;98.45
33161;BME280;19522;45.656;11.302;2023-06-14T02:43:33;97787.59;;;17.03;99.25
33161;BME280;19522;45.656;11.302;2023-06-14T02:46:02;97771.25;;;16.79;99.36
33161;BME280;19522;45.656;11.302;2023-06-14T02:48:27;97742.91;;;16.73;98.94
33161;BME280;19522;45.656;11.302;2023-06-14T02:50:53;97775.72;;;16.97;98.34
33161;BME280;19522;45.656;11.302;2023-06-14T02:53:19;97773.72;;;16.80;99.16
33161;BME280;19522;45.656;11.302;2023-06-14T02:55:44;97800.91;;;16.94;99.20
33161;BME280;19522;45.656;11.302;2023-06-14T02:58:12;97761.09;;;16.79;98.57
33161;BME280;19522;45.656;11.302;2023-06-14T03:00:38;97736.16;;;16.64;98.04
33161;BME280;19522;45.656;11.302;2023-06-14T03:03:07;97776.59;;;16.86;98.66
33161;BME280;19522;45.656;11.302;2023-06-14T03:05:43;97782.41;;;16.89;98.25
33161;BME280;19522;45.656;11.302;2023-06-14T03:08:12;97742.03;;;16.56;99.01
33161;BME280;19522;45.656;11.302;2023-06-14T03:10:51;97795.19;;;16.83;100.00
33161;BME280;19522;45.656;11.302;2023-06-14T03:13:17;97802.22;;;16.79;100.00
33161;BME280;19522;45.656;11.302;2023-06-14T03:15:46;97792.91;;;16.80;100.00
33161;BME280;19522;45.656;11.302;2023-06-14T03:18:13;97767.22;;;16.70;99.34
33161;BME280;19522;45.656;11.302;2023-06-14T03:20:40;97726.91;;;16.24;100.00
33161;BME280;19522;45.656;11.302;2023-06-14T03:23:06;97783.47;;;16.59;99.83
33161;BME280;19522;45.656;11.302;2023-06-14T03:25:32;97742.00;;;16.27;100.00
33161;BME280;19522;45.656;11.302;2023-06-14T03:28:01;97769.09;;;16.52;100.00
33161;BME280;19522;45.656;11.302;2023-06-14T03:30:27;97780.13;;;16.57;100.00
33161;BME280;19522;45.656;11.302;2023-06-14T03:32:52;97782.75;;;16.64;100.00
33161;BME280;19522;45.656;11.302;2023-06-14T03:35:24;97769.03;;;16.64;99.93
33161;BME280;19522;45.656;11.302;2023-06-14T03:37:49;97776.97;;;16.77;99.01
33161;BME280;19522;45.656;11.302;2023-06-14T03:40:17;97779.19;;;16.92;97.99
33161;BME280;19522;45.656;11.302;2023-06-14T03:42:43;97780.13;;;16.86;98.76
33161;BME280;19522;45.656;11.302;2023-06-14T03:45:12;97784.44;;;16.94;98.27
33161;BME280;19522;45.656;11.302;2023-06-14T03:47:38;97786.81;;;16.61;99.84
33161;BME280;19522;45.656;11.302;2023-06-14T03:50:04;97777.91;;;16.42;100.00
33161;BME280;19522;45.656;11.302;2023-06-14T03:52:31;97784.13;;;16.49;100.00
33161;BME280;19522;45.656;11.302;2023-06-14T03:57:31;97741.13;;;16.38;99.82
33161;BME280;19522;45.656;11.302;2023-06-14T03:59:57;97763.94;;;16.56;99.10
33161;BME280;19522;45.656;11.302;2023-06-14T04:02:22;97736.47;;;16.39;98.79
33161;BME280;19522;45.656;11.302;2023-06-14T04:04:48;97783.53;;;16.76;98.28
33161;BME280;19522;45.656;11.302;2023-06-14T04:07:15;97799.25;;;16.81;99.25
33161;BME280;19522;45.656;11.302;2023-06-14T04:09:44;97795.19;;;16.83;98.62
33161;BME280;19522;45.656;11.302;2023-06-14T04:12:10;97738.44;;;16.14;100.00
33161;BME280;19522;45.656;11.302;2023-06-14T04:14:40;97773.50;;;16.41;100.00
33161;BME280;19522;45.656;11.302;2023-06-14T04:17:06;97772.00;;;16.22;100.00
33161;BME280;19522;45.656;11.302;2023-06-14T04:19:31;97749.09;;;15.99;100.00
33161;BME280;19522;45.656;11.302;2023-06-14T04:21:57;97810.81;;;16.42;100.00
33161;BME280;19522;45.656;11.302;2023-06-14T04:24:24;97812.28;;;16.62;100.00
33161;BME280;19522;45.656;11.302;2023-06-14T04:26:57;97808.47;;;16.63;100.00
33161;BME280;19522;45.656;11.302;2023-06-14T04:29:24;97804.97;;;16.39;100.00
33161;BME280;19522;45.656;11.302;2023-06-14T04:31:54;97774.69;;;16.45;100.00
33161;BME280;19522;45.656;11.302;2023-06-14T04:34:20;97786.25;;;16.47;100.00
33161;BME280;19522;45.656;11.302;2023-06-14T04:36:47;97807.84;;;16.44;99.80
33161;BME280;19522;45.656;11.302;2023-06-14T04:39:19;97810.97;;;16.64;99.14
33161;BME280;19522;45.656;11.302;2023-06-14T04:41:46;97782.59;;;16.42;99.12
33161;BME280;19522;45.656;11.302;2023-06-14T04:44:12;97816.09;;;16.73;98.93
33161;BME280;19522;45.656;11.302;2023-06-14T04:46:39;97763.00;;;16.50;98.58
33161;BME280;19522;45.656;11.302;2023-06-14T04:49:16;97805.16;;;16.90;97.89
33161;BME280;19522;45.656;11.302;2023-06-14T04:51:43;97824.56;;;17.12;96.92
33161;BME280;19522;45.656;11.302;2023-06-14T04:54:10;97710.25;;;16.43;97.02
33161;BME280;19522;45.656;11.302;2023-06-14T04:56:39;97758.34;;;16.79;96.01
33161;BME280;19522;45.656;11.302;2023-06-14T04:59:05;97810.28;;;16.98;95.72
33161;BME280;19522;45.656;11.302;2023-06-14T05:01:34;97821.63;;;17.19;95.00
33161;BME280;19522;45.656;11.302;2023-06-14T05:03:59;97823.16;;;17.26;94.38
33161;BME280;19522;45.656;11.302;2023-06-14T05:06:25;97772.81;;;17.04;92.92
33161;BME280;19522;45.656;11.302;2023-06-14T05:08:53;97818.09;;;17.35;92.99
33161;BME280;19522;45.656;11.302;2023-06-14T05:11:19;97730.56;;;16.88;92.67
33161;BME280;19522;45.656;11.302;2023-06-14T05:13:45;97758.88;;;17.05;92.17
33161;BME280;19522;45.656;11.302;2023-06-14T05:16:13;97767.94;;;17.23;91.78
33161;BME280;19522;45.656;11.302;2023-06-14T05:18:41;97760.03;;;17.26;91.79
33161;BME280;19522;45.656;11.302;2023-06-14T05:21:06;97773.50;;;17.28;91.97
33161;BME280;19522;45.656;11.302;2023-06-14T05:23:32;97751.75;;;17.21;92.22
33161;BME280;19522;45.656;11.302;2023-06-14T05:25:57;97810.78;;;17.58;93.38
33161;BME280;19522;45.656;11.302;2023-06-14T05:28:23;97769.25;;;17.37;92.14
33161;BME280;19522;45.656;11.302;2023-06-14T05:30:49;97834.56;;;17.86;91.23
33161;BME280;19522;45.656;11.302;2023-06-14T05:33:15;97825.69;;;17.96;89.77
33161;BME280;19522;45.656;11.302;2023-06-14T05:35:43;97756.72;;;17.58;90.03
33161;BME280;19522;45.656;11.302;2023-06-14T05:38:08;97810.78;;;17.92;86.82
33161;BME280;19522;45.656;11.302;2023-06-14T05:40:36;97826.59;;;18.02;88.57
33161;BME280;19522;45.656;11.302;2023-06-14T05:43:02;97789.47;;;17.99;87.46
33161;BME280;19522;45.656;11.302;2023-06-14T05:45:27;97841.72;;;18.44;86.47
33161;BME280;19522;45.656;11.302;2023-06-14T05:47:53;97821.22;;;18.29;86.90
33161;BME280;19522;45.656;11.302;2023-06-14T05:50:20;97818.59;;;18.40;85.82
33161;BME280;19522;45.656;11.302;2023-06-14T05:52:46;97852.22;;;18.69;85.46
33161;BME280;19522;45.656;11.302;2023-06-14T05:55:11;97829.19;;;18.53;85.14
33161;BME280;19522;45.656;11.302;2023-06-14T05:57:37;97818.16;;;18.48;83.91
33161;BME280;19522;45.656;11.302;2023-06-14T06:00:03;97867.91;;;18.68;83.50
33161;BME280;19522;45.656;11.302;2023-06-14T06:02:36;97781.88;;;18.29;83.48
33161;BME280;19522;45.656;11.302;2023-06-14T06:05:01;97867.50;;;18.82;84.80
33161;BME280;19522;45.656;11.302;2023-06-14T06:07:27;97863.75;;;18.88;83.75
33161;BME280;19522;45.656;11.302;2023-06-14T06:09:53;97776.28;;;18.41;83.23
33161;BME280;19522;45.656;11.302;2023-06-14T06:12:18;97752.50;;;18.29;82.48
33161;BME280;19522;45.656;11.302;2023-06-14T06:14:44;97871.63;;;19.02;80.95
33161;BME280;19522;45.656;11.302;2023-06-14T06:17:09;97819.00;;;18.93;81.08
33161;BME280;19522;45.656;11.302;2023-06-14T06:19:34;97875.47;;;19.23;81.98
33161;BME280;19522;45.656;11.302;2023-06-14T06:22:00;97820.19;;;19.02;82.06
33161;BME280;19522;45.656;11.302;2023-06-14T06:24:25;97873.75;;;19.44;81.76
33161;BME280;19522;45.656;11.302;2023-06-14T06:26:51;97835.38;;;19.32;80.92
33161;BME280;19522;45.656;11.302;2023-06-14T06:29:16;97873.66;;;19.66;81.42
33161;BME280;19522;45.656;11.302;2023-06-14T06:31:42;97865.28;;;19.83;81.50
33161;BME280;19522;45.656;11.302;2023-06-14T06:34:07;97870.84;;;19.88;81.66
33161;BME280;19522;45.656;11.302;2023-06-14T06:36:33;97868.75;;;20.06;81.23
33161;BME280;19522;45.656;11.302;2023-06-14T06:38:58;97879.91;;;20.21;81.29
33161;BME280;19522;45.656;11.302;2023-06-14T06:41:24;97885.44;;;20.21;81.16
33161;BME280;19522;45.656;11.302;2023-06-14T06:43:49;97875.50;;;20.20;79.30
33161;BME280;19522;45.656;11.302;2023-06-14T06:46:15;97841.75;;;20.03;78.53
33161;BME280;19522;45.656;11.302;2023-06-14T06:48:40;97878.91;;;20.38;76.88
33161;BME280;19522;45.656;11.302;2023-06-14T06:51:06;97835.25;;;20.19;76.77
33161;BME280;19522;45.656;11.302;2023-06-14T06:53:31;97838.28;;;20.18;76.33
33161;BME280;19522;45.656;11.302;2023-06-14T06:55:57;97841.03;;;20.23;76.05
33161;BME280;19522;45.656;11.302;2023-06-14T06:58:23;97802.97;;;20.15;75.56
33161;BME280;19522;45.656;11.302;2023-06-14T07:00:48;97828.06;;;20.18;73.87
33161;BME280;19522;45.656;11.302;2023-06-14T07:03:14;97866.50;;;20.35;74.21
33161;BME280;19522;45.656;11.302;2023-06-14T07:05:39;97845.56;;;19.97;74.09
33161;BME280;19522;45.656;11.302;2023-06-14T07:08:05;97864.47;;;20.20;74.82
33161;BME280;19522;45.656;11.302;2023-06-14T07:10:30;97881.50;;;20.55;73.93
33161;BME280;19522;45.656;11.302;2023-06-14T07:12:56;97835.88;;;20.37;72.29
33161;BME280;19522;45.656;11.302;2023-06-14T07:15:21;97886.88;;;20.82;72.97
33161;BME280;19522;45.656;11.302;2023-06-14T07:17:47;97890.22;;;20.84;69.99
33161;BME280;19522;45.656;11.302;2023-06-14T07:20:13;97891.09;;;20.95;70.69
33161;BME280;19522;45.656;11.302;2023-06-14T07:22:42;97887.84;;;21.14;71.62
33161;BME280;19522;45.656;11.302;2023-06-14T07:25:09;97883.72;;;21.22;69.07
33161;BME280;19522;45.656;11.302;2023-06-14T07:27:37;97890.88;;;21.12;68.68
33161;BME280;19522;45.656;11.302;2023-06-14T07:30:03;97861.03;;;20.99;68.07
33161;BME280;19522;45.656;11.302;2023-06-14T07:32:29;97888.13;;;21.23;68.48
33161;BME280;19522;45.656;11.302;2023-06-14T07:34:54;97901.97;;;21.33;67.46
33161;BME280;19522;45.656;11.302;2023-06-14T07:37:20;97874.09;;;21.24;67.76
33161;BME280;19522;45.656;11.302;2023-06-14T07:39:45;97866.63;;;21.25;68.54
33161;BME280;19522;45.656;11.302;2023-06-14T07:42:11;97905.88;;;21.53;65.75
33161;BME280;19522;45.656;11.302;2023-06-14T07:44:36;97819.06;;;20.97;65.19
33161;BME280;19522;45.656;11.302;2023-06-14T07:47:02;97907.00;;;21.57;64.71
33161;BME280;19522;45.656;11.302;2023-06-14T07:49:27;97907.22;;;21.24;66.80
33161;BME280;19522;45.656;11.302;2023-06-14T07:51:56;97912.13;;;21.17;65.32
33161;BME280;19522;45.656;11.302;2023-06-14T07:54:21;97911.31;;;21.22;67.01
33161;BME280;19522;45.656;11.302;2023-06-14T07:56:51;97896.16;;;21.24;63.61
33161;BME280;19522;45.656;11.302;2023-06-14T07:59:17;97872.66;;;21.11;64.96
33161;BME280;19522;45.656;11.302;2023-06-14T08:01:42;97915.75;;;21.17;63.51
33161;BME280;19522;45.656;11.302;2023-06-14T08:04:12;97885.13;;;21.29;63.76
33161;BME280;19522;45.656;11.302;2023-06-14T08:06:38;97912.22;;;21.43;65.38
33161;BME280;19522;45.656;11.302;2023-06-14T08:09:04;97894.25;;;21.35;64.54
33161;BME280;19522;45.656;11.302;2023-06-14T08:11:33;97918.31;;;21.50;65.35
33161;BME280;19522;45.656;11.302;2023-06-14T08:13:59;97894.28;;;21.45;64.75
33161;BME280;19522;45.656;11.302;2023-06-14T08:16:24;97904.31;;;21.67;64.93
33161;BME280;19522;45.656;11.302;2023-06-14T08:18:49;97855.91;;;21.49;65.52
33161;BME280;19522;45.656;11.302;2023-06-14T08:21:15;97871.69;;;21.69;64.49
33161;BME280;19522;45.656;11.302;2023-06-14T08:23:41;97899.91;;;21.97;64.72
33161;BME280;19522;45.656;11.302;2023-06-14T08:26:08;97884.41;;;21.86;62.91
33161;BME280;19522;45.656;11.302;2023-06-14T08:28:34;97856.75;;;21.81;63.06
33161;BME280;19522;45.656;11.302;2023-06-14T08:30:59;97897.94;;;21.98;60.82
33161;BME280;19522;45.656;11.302;2023-06-14T08:33:25;97879.44;;;21.72;62.33
33161;BME280;19522;45.656;11.302;2023-06-14T08:35:53;97847.13;;;21.62;62.11
33161;BME280;19522;45.656;11.302;2023-06-14T08:38:21;97855.41;;;21.78;61.70
33161;BME280;19522;45.656;11.302;2023-06-14T08:40:50;97917.28;;;21.87;62.51
33161;BME280;19522;45.656;11.302;2023-06-14T08:43:19;97881.91;;;21.58;62.59
33161;BME280;19522;45.656;11.302;2023-06-14T08:45:46;97912.03;;;21.91;62.57
33161;BME280;19522;45.656;11.302;2023-06-14T08:48:13;97904.03;;;22.00;62.81
33161;BME280;19522;45.656;11.302;2023-06-14T08:50:43;97918.69;;;22.16;61.16
33161;BME280;19522;45.656;11.302;2023-06-14T08:53:13;97900.16;;;22.21;61.19
33161;BME280;19522;45.656;11.302;2023-06-14T08:55:42;97917.03;;;22.15;59.53
33161;BME280;19522;45.656;11.302;2023-06-14T08:58:08;97927.00;;;22.16;58.20
33161;BME280;19522;45.656;11.302;2023-06-14T09:00:34;97905.97;;;22.15;59.05
33161;BME280;19522;45.656;11.302;2023-06-14T09:03:03;97874.47;;;21.85;59.60
33161;BME280;19522;45.656;11.302;2023-06-14T09:05:28;97903.50;;;21.92;61.68
33161;BME280;19522;45.656;11.302;2023-06-14T09:07:54;97871.66;;;21.54;61.01
33161;BME280;19522;45.656;11.302;2023-06-14T09:10:21;97922.56;;;22.04;59.62
33161;BME280;19522;45.656;11.302;2023-06-14T09:12:47;97930.56;;;21.85;60.66
33161;BME280;19522;45.656;11.302;2023-06-14T09:15:13;97933.63;;;21.94;60.33
33161;BME280;19522;45.656;11.302;2023-06-14T09:17:39;97881.91;;;21.69;62.30
33161;BME280;19522;45.656;11.302;2023-06-14T09:20:06;97920.34;;;22.12;60.86
33161;BME280;19522;45.656;11.302;2023-06-14T09:22:35;97887.72;;;22.03;62.39
33161;BME280;19522;45.656;11.302;2023-06-14T09:25:00;97908.44;;;22.06;59.10
33161;BME280;19522;45.656;11.302;2023-06-14T09:27:27;97932.53;;;22.16;57.67
33161;BME280;19522;45.656;11.302;2023-06-14T09:29:53;97836.31;;;21.61;59.68
33161;BME280;19522;45.656;11.302;2023-06-14T09:32:18;97880.81;;;22.06;56.62
33161;BME280;19522;45.656;11.302;2023-06-14T09:34:45;97903.75;;;22.32;54.65
33161;BME280;19522;45.656;11.302;2023-06-14T09:37:11;97938.28;;;22.66;56.64
33161;BME280;19522;45.656;11.302;2023-06-14T09:39:51;97940.19;;;22.81;56.15
33161;BME280;19522;45.656;11.302;2023-06-14T09:42:18;97919.72;;;22.82;53.78
33161;BME280;19522;45.656;11.302;2023-06-14T09:44:48;97928.41;;;23.25;53.32
33161;BME280;19522;45.656;11.302;2023-06-14T09:47:16;97917.28;;;23.36;53.69
33161;BME280;19522;45.656;11.302;2023-06-14T09:49:42;97933.25;;;23.59;54.80
33161;BME280;19522;45.656;11.302;2023-06-14T09:52:18;97912.06;;;23.74;54.09
33161;BME280;19522;45.656;11.302;2023-06-14T09:54:45;97906.53;;;23.74;51.58
33161;BME280;19522;45.656;11.302;2023-06-14T09:57:21;97920.00;;;23.86;52.19
33161;BME280;19522;45.656;11.302;2023-06-14T09:59:48;97921.31;;;24.04;51.05
33161;BME280;19522;45.656;11.302;2023-06-14T10:02:28;97925.28;;;24.27;52.77
33161;BME280;19522;45.656;11.302;2023-06-14T10:05:07;97922.00;;;24.49;53.56
33161;BME280;19522;45.656;11.302;2023-06-14T10:07:53;97926.03;;;24.38;45.52
33161;BME280;19522;45.656;11.302;2023-06-14T10:10:21;97902.94;;;24.42;48.78
33161;BME280;19522;45.656;11.302;2023-06-14T10:12:47;97894.09;;;24.65;48.50
33161;BME280;19522;45.656;11.302;2023-06-14T10:15:22;97883.81;;;24.65;49.47
33161;BME280;19522;45.656;11.302;2023-06-14T10:18:17;97880.38;;;24.79;47.59
33161;BME280;19522;45.656;11.302;2023-06-14T10:21:04;97908.00;;;25.13;46.61
33161;BME280;19522;45.656;11.302;2023-06-14T10:23:37;97882.59;;;25.01;43.81
33161;BME280;19522;45.656;11.302;2023-06-14T10:26:03;97827.38;;;24.51;47.48
33161;BME280;19522;45.656;11.302;2023-06-14T10:28:29;97877.22;;;24.32;46.90
33161;BME280;19522;45.656;11.302;2023-06-14T10:31:02;97899.50;;;23.87;51.49
33161;BME280;19522;45.656;11.302;2023-06-14T10:33:41;97887.78;;;24.00;51.09
33161;BME280;19522;45.656;11.302;2023-06-14T10:36:28;97900.44;;;24.11;54.03
33161;BME280;19522;45.656;11.302;2023-06-14T10:39:07;97889.28;;;24.17;49.74
33161;BME280;19522;45.656;11.302;2023-06-14T10:41:54;97871.50;;;23.88;52.28
33161;BME280;19522;45.656;11.302;2023-06-14T10:46:49;97837.78;;;23.76;49.42
33161;BME280;19522;45.656;11.302;2023-06-14T10:49:38;97849.28;;;23.93;47.28
33161;BME280;19522;45.656;11.302;2023-06-14T10:52:16;97822.91;;;24.01;47.40
33161;BME280;19522;45.656;11.302;2023-06-14T10:54:59;97830.03;;;24.07;47.12
33161;BME280;19522;45.656;11.302;2023-06-14T10:57:25;97866.16;;;24.56;47.92
33161;BME280;19522;45.656;11.302;2023-06-14T10:59:51;97880.50;;;24.68;47.13
33161;BME280;19522;45.656;11.302;2023-06-14T11:04:51;97886.69;;;24.84;47.88
33161;BME280;19522;45.656;11.302;2023-06-14T11:07:32;97882.06;;;24.99;45.57
33161;BME280;19522;45.656;11.302;2023-06-14T11:10:15;97842.75;;;24.92;46.45
33161;BME280;19522;45.656;11.302;2023-06-14T11:12:47;97859.44;;;24.86;48.52
33161;BME280;19522;45.656;11.302;2023-06-14T11:15:14;97847.72;;;24.70;45.97
33161;BME280;19522;45.656;11.302;2023-06-14T11:17:50;97848.94;;;24.83;45.79
33161;BME280;19522;45.656;11.302;2023-06-14T11:20:16;97833.28;;;24.93;46.71
33161;BME280;19522;45.656;11.302;2023-06-14T11:22:42;97818.31;;;24.64;44.39
33161;BME280;19522;45.656;11.302;2023-06-14T11:25:14;97794.34;;;24.49;43.65
33161;BME280;19522;45.656;11.302;2023-06-14T11:27:43;97839.28;;;24.81;45.74
33161;BME280;19522;45.656;11.302;2023-06-14T11:30:09;97828.03;;;24.67;43.46
33161;BME280;19522;45.656;11.302;2023-06-14T11:32:36;97858.59;;;25.10;48.12
33161;BME280;19522;45.656;11.302;2023-06-14T11:35:05;97845.69;;;25.19;44.70
33161;BME280;19522;45.656;11.302;2023-06-14T11:37:31;97851.81;;;25.41;44.14
33161;BME280;19522;45.656;11.302;2023-06-14T11:40:01;97838.03;;;25.30;44.56
33161;BME280;19522;45.656;11.302;2023-06-14T11:42:29;97809.72;;;25.09;42.48
33161;BME280;19522;45.656;11.302;2023-06-14T11:44:58;97759.75;;;24.66;44.39
33161;BME280;19522;45.656;11.302;2023-06-14T11:47:23;97820.63;;;25.25;45.14
33161;BME280;19522;45.656;11.302;2023-06-14T11:49:48;97825.84;;;25.07;42.35
33161;BME280;19522;45.656;11.302;2023-06-14T11:52:14;97824.09;;;24.92;42.62
33161;BME280;19522;45.656;11.302;2023-06-14T11:54:40;97839.97;;;24.92;42.46
33161;BME280;19522;45.656;11.302;2023-06-14T11:57:09;97839.78;;;24.83;41.62
33161;BME280;19522;45.656;11.302;2023-06-14T11:59:39;97803.31;;;24.65;40.85
33161;BME280;19522;45.656;11.302;2023-06-14T12:02:06;97831.19;;;24.84;43.25
33161;BME280;19522;45.656;11.302;2023-06-14T12:04:32;97830.38;;;25.03;43.40
33161;BME280;19522;45.656;11.302;2023-06-14T12:07:11;97823.03;;;25.12;45.96
33161;BME280;19522;45.656;11.302;2023-06-14T12:09:40;97787.50;;;24.90;46.81
33161;BME280;19522;45.656;11.302;2023-06-14T12:12:08;97788.31;;;24.91;44.79
33161;BME280;19522;45.656;11.302;2023-06-14T12:14:34;97820.63;;;25.25;44.32
33161;BME280;19522;45.656;11.302;2023-06-14T12:17:07;97816.56;;;25.36;42.40
33161;BME280;19522;45.656;11.302;2023-06-14T12:19:41;97791.72;;;25.45;44.11
33161;BME280;19522;45.656;11.302;2023-06-14T12:22:09;97803.50;;;25.56;43.20
33161;BME280;19522;45.656;11.302;2023-06-14T12:24:35;97816.72;;;25.97;43.63
33161;BME280;19522;45.656;11.302;2023-06-14T12:27:00;97796.81;;;25.57;42.51
33161;BME280;19522;45.656;11.302;2023-06-14T12:29:29;97794.34;;;25.88;44.67
33161;BME280;19522;45.656;11.302;2023-06-14T12:31:54;97797.72;;;26.18;45.29
33161;BME280;19522;45.656;11.302;2023-06-14T12:34:22;97798.38;;;26.29;44.32
33161;BME280;19522;45.656;11.302;2023-06-14T12:36:48;97727.59;;;26.02;42.93
33161;BME280;19522;45.656;11.302;2023-06-14T12:39:15;97781.03;;;26.74;43.00
33161;BME280;19522;45.656;11.302;2023-06-14T12:41:40;97739.72;;;26.81;44.93
33161;BME280;19522;45.656;11.302;2023-06-14T12:44:12;97807.28;;;27.24;41.83
33161;BME280;19522;45.656;11.302;2023-06-14T12:46:39;97802.63;;;27.19;42.10
33161;BME280;19522;45.656;11.302;2023-06-14T12:49:05;97758.66;;;26.93;41.39
33161;BME280;19522;45.656;11.302;2023-06-14T12:51:31;97759.69;;;26.97;39.78
33161;BME280;19522;45.656;11.302;2023-06-14T12:53:57;97795.13;;;27.42;39.74
33161;BME280;19522;45.656;11.302;2023-06-14T12:56:25;97784.91;;;27.15;41.33
33161;BME280;19522;45.656;11.302;2023-06-14T12:58:51;97791.25;;;26.93;41.69
33161;BME280;19522;45.656;11.302;2023-06-14T13:01:17;97799.50;;;26.28;40.40